sensor_id;sensor_type;location;lat;lon;timestamp;pressure;altitude;pressure_sealevel;temperature;humidity
33697;BME280;20031;43.416;23.232;2023-05-27T00:01:39;100111.88;;;16.28;89.00
33697;BME280;20031;43.416;23.232;2023-05-27T00:04:05;100114.69;;;16.27;89.52
33697;BME280;20031;43.416;23.232;2023-05-27T00:06:30;100110.78;;;16.23;89.60
33697;BME280;20031;43.416;23.232;2023-05-27T00:08:56;100123.19;;;16.29;89.40
33697;BME280;20031;43.416;23.232;2023-05-27T00:11:21;100109.09;;;16.36;89.63
33697;BME280;20031;43.416;23.232;2023-05-27T00:13:46;100115.72;;;16.32;89.00
33697;BME280;20031;43.416;23.232;2023-05-27T00:16:12;100115.47;;;16.27;88.99
33697;BME280;20031;43.416;23.232;2023-05-27T00:18:38;100109.97;;;16.22;88.90
33697;BME280;20031;43.416;23.232;2023-05-27T00:21:04;100108.16;;;16.23;89.19
33697;BME280;20031;43.416;23.232;2023-05-27T00:23:30;100106.41;;;16.30;89.29
33697;BME280;20031;43.416;23.232;2023-05-27T00:25:55;100104.81;;;16.35;89.23
33697;BME280;20031;43.416;23.232;2023-05-27T00:28:20;100098.56;;;16.36;89.01
33697;BME280;20031;43.416;23.232;2023-05-27T00:30:46;100099.19;;;16.38;88.78
33697;BME280;20031;43.416;23.232;2023-05-27T00:33:11;100099.19;;;16.38;88.39
33697;BME280;20031;43.416;23.232;2023-05-27T00:35:37;100095.31;;;16.34;88.64
33697;BME280;20031;43.416;23.232;2023-05-27T00:38:04;100090.88;;;16.35;88.48
33697;BME280;20031;43.416;23.232;2023-05-27T00:40:30;100092.34;;;16.43;88.69
33697;BME280;20031;43.416;23.232;2023-05-27T00:42:56;100094.38;;;16.48;89.21
33697;BME280;20031;43.416;23.232;2023-05-27T00:45:21;100079.84;;;16.52;88.96
33697;BME280;20031;43.416;23.232;2023-05-27T00:47:47;100078.66;;;16.54;88.78
33697;BME280;20031;43.416;23.232;2023-05-27T00:50:14;100074.59;;;16.52;88.42
33697;BME280;20031;43.416;23.232;2023-05-27T00:52:39;100063.44;;;16.50;88.92
33697;BME280;20031;43.416;23.232;2023-05-27T00:55:06;100064.84;;;16.46;88.86
33697;BME280;20031;43.416;23.232;2023-05-27T00:57:32;100060.00;;;16.43;88.92
33697;BME280;20031;43.416;23.232;2023-05-27T00:59:58;100062.63;;;16.43;89.33
33697;BME280;20031;43.416;23.232;2023-05-27T01:02:23;100058.34;;;16.42;88.97
33697;BME280;20031;43.416;23.232;2023-05-27T01:04:49;100056.34;;;16.44;89.04
33697;BME280;20031;43.416;23.232;2023-05-27T01:10:25;100057.63;;;16.61;89.45
33697;BME280;20031;43.416;23.232;2023-05-27T01:13:00;100051.97;;;16.57;88.67
33697;BME280;20031;43.416;23.232;2023-05-27T01:15:27;100047.47;;;16.51;88.99
33697;BME280;20031;43.416;23.232;2023-05-27T01:17:56;100042.00;;;16.53;88.68
33697;BME280;20031;43.416;23.232;2023-05-27T01:20:22;100049.88;;;16.53;88.54
33697;BME280;20031;43.416;23.232;2023-05-27T01:22:48;100034.72;;;16.48;88.77
33697;BME280;20031;43.416;23.232;2023-05-27T01:25:17;100043.44;;;16.49;88.67
33697;BME280;20031;43.416;23.232;2023-05-27T01:27:44;100036.13;;;16.51;88.60
33697;BME280;20031;43.416;23.232;2023-05-27T01:30:11;100027.66;;;16.49;88.68
33697;BME280;20031;43.416;23.232;2023-05-27T01:32:46;100037.38;;;16.55;88.57
33697;BME280;20031;43.416;23.232;2023-05-27T01:35:43;100030.31;;;16.62;88.50
33697;BME280;20031;43.416;23.232;2023-05-27T01:38:13;100036.81;;;16.66;88.45
33697;BME280;20031;43.416;23.232;2023-05-27T01:40:40;100032.16;;;16.68;88.16
33697;BME280;20031;43.416;23.232;2023-05-27T01:43:07;100037.03;;;16.71;88.05
33697;BME280;20031;43.416;23.232;2023-05-27T01:45:34;100024.47;;;16.73;87.55
33697;BME280;20031;43.416;23.232;2023-05-27T01:47:59;100021.28;;;16.77;87.47
33697;BME280;20031;43.416;23.232;2023-05-27T01:50:26;100021.66;;;16.81;87.71
33697;BME280;20031;43.416;23.232;2023-05-27T01:52:51;100013.59;;;16.82;87.71
33697;BME280;20031;43.416;23.232;2023-05-27T01:55:17;100014.22;;;16.84;87.66
33697;BME280;20031;43.416;23.232;2023-05-27T01:57:43;100018.84;;;16.82;87.60
33697;BME280;20031;43.416;23.232;2023-05-27T02:00:09;100008.72;;;16.79;87.16
33697;BME280;20031;43.416;23.232;2023-05-27T02:02:35;100016.22;;;16.76;87.57
33697;BME280;20031;43.416;23.232;2023-05-27T02:05:00;100005.69;;;16.76;87.61
33697;BME280;20031;43.416;23.232;2023-05-27T02:07:26;100015.59;;;16.74;87.58
33697;BME280;20031;43.416;23.232;2023-05-27T02:09:53;100014.97;;;16.72;87.91
33697;BME280;20031;43.416;23.232;2023-05-27T02:12:18;100013.16;;;16.66;87.64
33697;BME280;20031;43.416;23.232;2023-05-27T02:14:44;100004.22;;;16.60;87.80
33697;BME280;20031;43.416;23.232;2023-05-27T02:17:10;99999.56;;;16.56;88.36
33697;BME280;20031;43.416;23.232;2023-05-27T02:19:36;99996.94;;;16.56;88.33
33697;BME280;20031;43.416;23.232;2023-05-27T02:22:02;100002.56;;;16.53;88.48
33697;BME280;20031;43.416;23.232;2023-05-27T02:24:27;100005.38;;;16.51;88.62
33697;BME280;20031;43.416;23.232;2023-05-27T02:26:53;100001.56;;;16.54;89.03
33697;BME280;20031;43.416;23.232;2023-05-27T02:29:18;100001.38;;;16.55;88.86
33697;BME280;20031;43.416;23.232;2023-05-27T02:31:44;100009.06;;;16.57;89.41
33697;BME280;20031;43.416;23.232;2023-05-27T02:34:09;100006.81;;;16.54;88.84
33697;BME280;20031;43.416;23.232;2023-05-27T02:36:35;100001.34;;;16.49;89.17
33697;BME280;20031;43.416;23.232;2023-05-27T02:39:00;99994.66;;;16.46;89.58
33697;BME280;20031;43.416;23.232;2023-05-27T02:41:26;99996.69;;;16.44;89.49
33697;BME280;20031;43.416;23.232;2023-05-27T02:43:52;99992.22;;;16.45;89.53
33697;BME280;20031;43.416;23.232;2023-05-27T02:46:17;99982.53;;;16.45;89.71
33697;BME280;20031;43.416;23.232;2023-05-27T02:48:43;99986.78;;;16.46;89.90
33697;BME280;20031;43.416;23.232;2023-05-27T02:51:08;99983.94;;;16.48;90.04
33697;BME280;20031;43.416;23.232;2023-05-27T02:53:34;99981.13;;;16.49;90.06
33697;BME280;20031;43.416;23.232;2023-05-27T02:55:59;99980.31;;;16.49;90.19
33697;BME280;20031;43.416;23.232;2023-05-27T02:58:25;99983.16;;;16.47;89.77
33697;BME280;20031;43.416;23.232;2023-05-27T03:00:50;99975.47;;;16.46;90.09
33697;BME280;20031;43.416;23.232;2023-05-27T03:03:16;99978.28;;;16.44;89.51
33697;BME280;20031;43.416;23.232;2023-05-27T03:05:41;99974.22;;;16.42;89.29
33697;BME280;20031;43.416;23.232;2023-05-27T03:08:06;99979.06;;;16.38;88.90
33697;BME280;20031;43.416;23.232;2023-05-27T03:10:33;99977.03;;;16.34;88.97
33697;BME280;20031;43.416;23.232;2023-05-27T03:12:58;99975.78;;;16.30;88.86
33697;BME280;20031;43.416;23.232;2023-05-27T03:15:24;99976.22;;;16.34;89.13
33697;BME280;20031;43.416;23.232;2023-05-27T03:17:50;99977.66;;;16.36;88.53
33697;BME280;20031;43.416;23.232;2023-05-27T03:20:15;99984.75;;;16.42;88.76
33697;BME280;20031;43.416;23.232;2023-05-27T03:22:44;99982.13;;;16.48;88.52
33697;BME280;20031;43.416;23.232;2023-05-27T03:25:09;99978.31;;;16.57;88.50
33697;BME280;20031;43.416;23.232;2023-05-27T03:27:35;99979.16;;;16.64;87.99
33697;BME280;20031;43.416;23.232;2023-05-27T03:30:02;99978.75;;;16.67;87.77
33697;BME280;20031;43.416;23.232;2023-05-27T03:32:29;99982.16;;;16.61;87.37
33697;BME280;20031;43.416;23.232;2023-05-27T03:34:54;99974.47;;;16.60;87.03
33697;BME280;20031;43.416;23.232;2023-05-27T03:37:20;99993.50;;;16.62;86.82
33697;BME280;20031;43.416;23.232;2023-05-27T03:39:46;100001.00;;;16.65;86.46
33697;BME280;20031;43.416;23.232;2023-05-27T03:42:11;100012.72;;;16.62;86.54
33697;BME280;20031;43.416;23.232;2023-05-27T03:44:36;100007.66;;;16.61;86.21
33697;BME280;20031;43.416;23.232;2023-05-27T03:47:02;100019.81;;;16.62;86.49
33697;BME280;20031;43.416;23.232;2023-05-27T03:49:28;100011.09;;;16.61;86.72
33697;BME280;20031;43.416;23.232;2023-05-27T03:51:53;99996.13;;;16.68;87.02
33697;BME280;20031;43.416;23.232;2023-05-27T03:54:19;100001.00;;;16.71;87.17
33697;BME280;20031;43.416;23.232;2023-05-27T03:56:44;99999.00;;;16.73;86.19
33697;BME280;20031;43.416;23.232;2023-05-27T03:59:10;99995.75;;;16.78;86.44
33697;BME280;20031;43.416;23.232;2023-05-27T04:01:37;99996.59;;;16.85;86.93
33697;BME280;20031;43.416;23.232;2023-05-27T04:04:03;99998.22;;;16.92;86.13
33697;BME280;20031;43.416;23.232;2023-05-27T04:06:28;99994.78;;;16.98;86.17
33697;BME280;20031;43.416;23.232;2023-05-27T04:08:53;99994.19;;;17.09;85.75
33697;BME280;20031;43.416;23.232;2023-05-27T04:11:19;99989.34;;;17.19;85.37
33697;BME280;20031;43.416;23.232;2023-05-27T04:13:44;99991.41;;;17.30;85.07
33697;BME280;20031;43.416;23.232;2023-05-27T04:16:10;99997.47;;;17.43;84.63
33697;BME280;20031;43.416;23.232;2023-05-27T04:18:35;99997.25;;;17.57;84.68
33697;BME280;20031;43.416;23.232;2023-05-27T04:21:01;99996.25;;;17.65;83.38
33697;BME280;20031;43.416;23.232;2023-05-27T04:23:26;99994.81;;;17.69;82.82
33697;BME280;20031;43.416;23.232;2023-05-27T04:25:52;100003.53;;;17.76;82.56
33697;BME280;20031;43.416;23.232;2023-05-27T04:28:18;99997.38;;;17.94;82.33
33697;BME280;20031;43.416;23.232;2023-05-27T04:30:44;100000.22;;;17.99;81.79
33697;BME280;20031;43.416;23.232;2023-05-27T04:33:11;100003.88;;;17.98;80.92
33697;BME280;20031;43.416;23.232;2023-05-27T04:35:38;100011.41;;;17.95;80.34
33697;BME280;20031;43.416;23.232;2023-05-27T04:38:06;100016.47;;;17.96;80.70
33697;BME280;20031;43.416;23.232;2023-05-27T04:40:32;100017.88;;;17.99;79.97
33697;BME280;20031;43.416;23.232;2023-05-27T04:42:59;100020.91;;;18.02;79.81
33697;BME280;20031;43.416;23.232;2023-05-27T04:45:25;100020.69;;;18.04;79.61
33697;BME280;20031;43.416;23.232;2023-05-27T04:47:51;100029.41;;;18.11;79.84
33697;BME280;20031;43.416;23.232;2023-05-27T04:50:17;100020.47;;;18.18;79.89
33697;BME280;20031;43.416;23.232;2023-05-27T04:52:42;100027.00;;;18.16;79.79
33697;BME280;20031;43.416;23.232;2023-05-27T04:55:09;100018.25;;;18.22;80.39
33697;BME280;20031;43.416;23.232;2023-05-27T04:57:36;100018.00;;;18.30;80.18
33697;BME280;20031;43.416;23.232;2023-05-27T05:00:04;100015.78;;;18.33;80.25
33697;BME280;20031;43.416;23.232;2023-05-27T05:02:30;100015.34;;;18.36;79.62
33697;BME280;20031;43.416;23.232;2023-05-27T05:05:04;100023.03;;;18.44;79.78
33697;BME280;20031;43.416;23.232;2023-05-27T05:07:30;100024.63;;;18.51;79.66
33697;BME280;20031;43.416;23.232;2023-05-27T05:09:56;100029.88;;;18.58;79.59
33697;BME280;20031;43.416;23.232;2023-05-27T05:12:22;100032.91;;;18.61;79.25
33697;BME280;20031;43.416;23.232;2023-05-27T05:14:47;100035.50;;;18.68;78.55
33697;BME280;20031;43.416;23.232;2023-05-27T05:17:13;100043.41;;;18.74;78.32
33697;BME280;20031;43.416;23.232;2023-05-27T05:19:38;100048.81;;;18.86;78.25
33697;BME280;20031;43.416;23.232;2023-05-27T05:22:04;100051.38;;;18.98;77.22
33697;BME280;20031;43.416;23.232;2023-05-27T05:24:30;100047.84;;;19.17;77.19
33697;BME280;20031;43.416;23.232;2023-05-27T05:26:55;100049.34;;;19.38;76.31
33697;BME280;20031;43.416;23.232;2023-05-27T05:29:21;100058.38;;;19.72;75.22
33697;BME280;20031;43.416;23.232;2023-05-27T05:31:46;100052.56;;;19.88;74.24
33697;BME280;20031;43.416;23.232;2023-05-27T05:34:11;100062.25;;;20.18;74.11
33697;BME280;20031;43.416;23.232;2023-05-27T05:36:37;100054.81;;;20.27;71.50
33697;BME280;20031;43.416;23.232;2023-05-27T05:39:03;100057.78;;;20.19;71.09
33697;BME280;20031;43.416;23.232;2023-05-27T05:41:29;100063.66;;;20.39;71.84
33697;BME280;20031;43.416;23.232;2023-05-27T05:43:54;100059.53;;;20.43;71.62
33697;BME280;20031;43.416;23.232;2023-05-27T05:46:20;100059.69;;;20.48;70.09
33697;BME280;20031;43.416;23.232;2023-05-27T05:48:46;100064.38;;;20.63;70.37
33697;BME280;20031;43.416;23.232;2023-05-27T05:51:12;100059.59;;;20.90;69.73
33697;BME280;20031;43.416;23.232;2023-05-27T05:53:37;100069.69;;;21.10;68.96
33697;BME280;20031;43.416;23.232;2023-05-27T05:56:02;100068.00;;;21.27;67.75
33697;BME280;20031;43.416;23.232;2023-05-27T05:58:28;100064.97;;;21.12;66.48
33697;BME280;20031;43.416;23.232;2023-05-27T06:00:53;100069.56;;;20.88;66.62
33697;BME280;20031;43.416;23.232;2023-05-27T06:03:19;100062.41;;;21.06;67.44
33697;BME280;20031;43.416;23.232;2023-05-27T06:05:45;100070.53;;;21.22;67.46
33697;BME280;20031;43.416;23.232;2023-05-27T06:08:10;100070.16;;;21.19;66.25
33697;BME280;20031;43.416;23.232;2023-05-27T06:10:36;100069.22;;;20.84;65.66
33697;BME280;20031;43.416;23.232;2023-05-27T06:13:01;100064.59;;;20.80;66.93
33697;BME280;20031;43.416;23.232;2023-05-27T06:15:27;100062.31;;;21.12;66.64
33697;BME280;20031;43.416;23.232;2023-05-27T06:17:53;100063.31;;;21.41;66.28
33697;BME280;20031;43.416;23.232;2023-05-27T06:20:20;100065.34;;;21.68;64.88
33697;BME280;20031;43.416;23.232;2023-05-27T06:22:45;100069.50;;;21.87;64.06
33697;BME280;20031;43.416;23.232;2023-05-27T06:25:14;100068.16;;;22.07;63.51
33697;BME280;20031;43.416;23.232;2023-05-27T06:27:41;100075.19;;;22.24;62.49
33697;BME280;20031;43.416;23.232;2023-05-27T06:30:06;100071.94;;;22.45;62.14
33697;BME280;20031;43.416;23.232;2023-05-27T06:32:32;100071.13;;;22.45;61.56
33697;BME280;20031;43.416;23.232;2023-05-27T06:34:59;100073.88;;;22.50;61.66
33697;BME280;20031;43.416;23.232;2023-05-27T06:37:25;100070.72;;;22.64;60.77
33697;BME280;20031;43.416;23.232;2023-05-27T06:39:50;100075.09;;;22.70;60.55
33697;BME280;20031;43.416;23.232;2023-05-27T06:42:16;100078.75;;;22.80;59.89
33697;BME280;20031;43.416;23.232;2023-05-27T06:44:41;100069.69;;;22.93;59.63
33697;BME280;20031;43.416;23.232;2023-05-27T06:47:07;100075.97;;;22.87;58.90
33697;BME280;20031;43.416;23.232;2023-05-27T06:49:32;100068.50;;;22.72;58.03
33697;BME280;20031;43.416;23.232;2023-05-27T06:51:58;100074.75;;;22.78;58.84
33697;BME280;20031;43.416;23.232;2023-05-27T06:54:23;100075.81;;;23.05;59.96
33697;BME280;20031;43.416;23.232;2023-05-27T06:56:49;100071.78;;;23.02;59.11
33697;BME280;20031;43.416;23.232;2023-05-27T06:59:14;100068.50;;;23.11;59.75
33697;BME280;20031;43.416;23.232;2023-05-27T07:01:40;100071.44;;;23.26;59.80
33697;BME280;20031;43.416;23.232;2023-05-27T07:04:05;100065.31;;;23.42;59.32
33697;BME280;20031;43.416;23.232;2023-05-27T07:06:30;100072.19;;;23.55;59.01
33697;BME280;20031;43.416;23.232;2023-05-27T07:08:56;100065.38;;;23.75;58.26
33697;BME280;20031;43.416;23.232;2023-05-27T07:11:22;100063.50;;;23.92;57.85
33697;BME280;20031;43.416;23.232;2023-05-27T07:13:48;100055.75;;;24.07;57.65
33697;BME280;20031;43.416;23.232;2023-05-27T07:16:13;100059.38;;;24.01;57.11
33697;BME280;20031;43.416;23.232;2023-05-27T07:18:39;100063.88;;;24.16;56.33
33697;BME280;20031;43.416;23.232;2023-05-27T07:21:04;100058.44;;;24.28;55.44
33697;BME280;20031;43.416;23.232;2023-05-27T07:23:30;100060.16;;;24.17;54.99
33697;BME280;20031;43.416;23.232;2023-05-27T07:25:55;100058.44;;;24.28;56.53
33697;BME280;20031;43.416;23.232;2023-05-27T07:28:21;100055.75;;;24.44;56.94
33697;BME280;20031;43.416;23.232;2023-05-27T07:30:46;100053.72;;;24.51;56.71
33697;BME280;20031;43.416;23.232;2023-05-27T07:33:13;100052.22;;;24.39;56.98
33697;BME280;20031;43.416;23.232;2023-05-27T07:35:39;100058.88;;;24.36;56.11
33697;BME280;20031;43.416;23.232;2023-05-27T07:38:05;100058.28;;;24.34;54.99
33697;BME280;20031;43.416;23.232;2023-05-27T07:40:31;100053.91;;;24.45;54.16
33697;BME280;20031;43.416;23.232;2023-05-27T07:42:56;100047.50;;;24.67;52.24
33697;BME280;20031;43.416;23.232;2023-05-27T07:45:22;100051.38;;;24.76;51.90
33697;BME280;20031;43.416;23.232;2023-05-27T07:47:48;100045.78;;;24.77;52.11
33697;BME280;20031;43.416;23.232;2023-05-27T07:50:13;100050.09;;;24.83;52.27
33697;BME280;20031;43.416;23.232;2023-05-27T07:52:40;100048.09;;;24.95;52.33
33697;BME280;20031;43.416;23.232;2023-05-27T07:55:07;100047.31;;;25.21;52.13
33697;BME280;20031;43.416;23.232;2023-05-27T07:57:32;100046.00;;;25.50;50.47
33697;BME280;20031;43.416;23.232;2023-05-27T07:59:58;100053.06;;;25.34;50.23
33697;BME280;20031;43.416;23.232;2023-05-27T08:02:23;100053.56;;;25.31;50.96
33697;BME280;20031;43.416;23.232;2023-05-27T08:04:51;100055.75;;;25.39;49.65
33697;BME280;20031;43.416;23.232;2023-05-27T08:07:16;100053.41;;;25.43;49.83
33697;BME280;20031;43.416;23.232;2023-05-27T08:09:42;100054.78;;;25.19;49.75
33697;BME280;20031;43.416;23.232;2023-05-27T08:12:07;100052.13;;;25.24;49.60
33697;BME280;20031;43.416;23.232;2023-05-27T08:14:33;100047.72;;;25.66;49.41
33697;BME280;20031;43.416;23.232;2023-05-27T08:16:59;100052.00;;;26.03;49.00
33697;BME280;20031;43.416;23.232;2023-05-27T08:19:24;100051.28;;;26.12;47.45
33697;BME280;20031;43.416;23.232;2023-05-27T08:21:50;100044.13;;;26.22;46.79
33697;BME280;20031;43.416;23.232;2023-05-27T08:24:15;100043.75;;;26.50;46.77
33697;BME280;20031;43.416;23.232;2023-05-27T08:26:41;100041.66;;;26.62;47.13
33697;BME280;20031;43.416;23.232;2023-05-27T08:29:06;100043.31;;;26.73;47.05
33697;BME280;20031;43.416;23.232;2023-05-27T08:31:32;100047.63;;;26.89;46.14
33697;BME280;20031;43.416;23.232;2023-05-27T08:33:57;100050.28;;;26.89;45.55
33697;BME280;20031;43.416;23.232;2023-05-27T08:36:22;100036.88;;;26.69;45.61
33697;BME280;20031;43.416;23.232;2023-05-27T08:38:48;100037.13;;;26.73;45.50
33697;BME280;20031;43.416;23.232;2023-05-27T08:41:14;100039.72;;;26.53;46.19
33697;BME280;20031;43.416;23.232;2023-05-27T08:43:41;100035.78;;;26.60;46.10
33697;BME280;20031;43.416;23.232;2023-05-27T08:46:07;100033.44;;;26.83;45.63
33697;BME280;20031;43.416;23.232;2023-05-27T08:48:32;100033.75;;;26.97;45.65
33697;BME280;20031;43.416;23.232;2023-05-27T08:50:58;100037.25;;;27.12;45.62
33697;BME280;20031;43.416;23.232;2023-05-27T08:53:26;100027.13;;;27.24;44.84
33697;BME280;20031;43.416;23.232;2023-05-27T08:55:53;100030.63;;;27.54;46.37
33697;BME280;20031;43.416;23.232;2023-05-27T08:58:20;100032.47;;;27.88;45.90
33697;BME280;20031;43.416;23.232;2023-05-27T09:00:46;100032.22;;;27.60;43.76
33697;BME280;20031;43.416;23.232;2023-05-27T09:03:12;100027.41;;;27.57;43.97
33697;BME280;20031;43.416;23.232;2023-05-27T09:05:38;100030.38;;;27.71;43.84
33697;BME280;20031;43.416;23.232;2023-05-27T09:08:03;100022.81;;;27.97;42.91
33697;BME280;20031;43.416;23.232;2023-05-27T09:10:38;100017.09;;;28.33;44.18
33697;BME280;20031;43.416;23.232;2023-05-27T09:13:04;100017.03;;;28.48;44.08
33697;BME280;20031;43.416;23.232;2023-05-27T09:15:31;100024.06;;;28.39;43.58
33697;BME280;20031;43.416;23.232;2023-05-27T09:17:57;100013.00;;;28.56;42.83
33697;BME280;20031;43.416;23.232;2023-05-27T09:20:27;100008.19;;;28.48;42.10
33697;BME280;20031;43.416;23.232;2023-05-27T09:23:00;100016.28;;;28.96;42.58
33697;BME280;20031;43.416;23.232;2023-05-27T09:25:27;100015.38;;;29.10;42.58
33697;BME280;20031;43.416;23.232;2023-05-27T09:27:54;100027.28;;;29.37;42.74
33697;BME280;20031;43.416;23.232;2023-05-27T09:30:21;100016.72;;;29.13;40.52
33697;BME280;20031;43.416;23.232;2023-05-27T09:32:47;100012.47;;;29.07;40.72
33697;BME280;20031;43.416;23.232;2023-05-27T09:35:14;100004.69;;;29.43;42.09
33697;BME280;20031;43.416;23.232;2023-05-27T09:37:40;100007.22;;;29.30;41.08
33697;BME280;20031;43.416;23.232;2023-05-27T09:40:07;100006.81;;;29.08;40.91
33697;BME280;20031;43.416;23.232;2023-05-27T09:42:47;99994.56;;;29.31;42.61
33697;BME280;20031;43.416;23.232;2023-05-27T09:45:15;99993.19;;;29.38;42.41
33697;BME280;20031;43.416;23.232;2023-05-27T09:47:42;99997.75;;;29.37;40.99
33697;BME280;20031;43.416;23.232;2023-05-27T09:50:08;99990.53;;;29.33;41.96
33697;BME280;20031;43.416;23.232;2023-05-27T09:52:37;99989.25;;;29.21;41.88
33697;BME280;20031;43.416;23.232;2023-05-27T09:55:06;99995.34;;;28.98;42.18
33697;BME280;20031;43.416;23.232;2023-05-27T09:57:33;99991.28;;;29.00;42.59
33697;BME280;20031;43.416;23.232;2023-05-27T09:59:59;99989.59;;;29.14;43.22
33697;BME280;20031;43.416;23.232;2023-05-27T10:02:27;99985.50;;;29.22;41.40
33697;BME280;20031;43.416;23.232;2023-05-27T10:04:56;99983.59;;;29.27;41.22
33697;BME280;20031;43.416;23.232;2023-05-27T10:07:23;99979.78;;;29.38;41.35
33697;BME280;20031;43.416;23.232;2023-05-27T10:09:49;99987.44;;;29.49;41.96
33697;BME280;20031;43.416;23.232;2023-05-27T10:12:15;99983.22;;;29.43;40.70
33697;BME280;20031;43.416;23.232;2023-05-27T10:14:42;99973.84;;;29.41;41.14
33697;BME280;20031;43.416;23.232;2023-05-27T10:17:09;99975.41;;;29.70;40.99
33697;BME280;20031;43.416;23.232;2023-05-27T10:19:35;99978.16;;;29.65;41.45
33697;BME280;20031;43.416;23.232;2023-05-27T10:22:10;99980.38;;;29.58;41.43
33697;BME280;20031;43.416;23.232;2023-05-27T10:24:36;99975.59;;;29.84;42.04
33697;BME280;20031;43.416;23.232;2023-05-27T10:27:01;99979.84;;;30.13;40.23
33697;BME280;20031;43.416;23.232;2023-05-27T10:29:35;99980.03;;;30.40;40.45
33697;BME280;20031;43.416;23.232;2023-05-27T10:32:04;99971.72;;;30.78;40.43
33697;BME280;20031;43.416;23.232;2023-05-27T10:34:44;99975.53;;;30.95;39.66
33697;BME280;20031;43.416;23.232;2023-05-27T10:37:19;99962.44;;;31.07;39.00
33697;BME280;20031;43.416;23.232;2023-05-27T10:39:53;99957.97;;;30.79;37.61
33697;BME280;20031;43.416;23.232;2023-05-27T10:42:22;99958.41;;;30.49;38.57
33697;BME280;20031;43.416;23.232;2023-05-27T10:44:49;99955.81;;;30.81;39.14
33697;BME280;20031;43.416;23.232;2023-05-27T10:47:15;99954.97;;;30.62;37.03
33697;BME280;20031;43.416;23.232;2023-05-27T10:49:45;99949.03;;;30.47;36.97
33697;BME280;20031;43.416;23.232;2023-05-27T10:52:12;99945.25;;;30.66;38.43
33697;BME280;20031;43.416;23.232;2023-05-27T10:54:46;99938.63;;;30.59;37.27
33697;BME280;20031;43.416;23.232;2023-05-27T10:57:12;99941.91;;;30.56;37.90
33697;BME280;20031;43.416;23.232;2023-05-27T10:59:51;99941.75;;;30.47;36.75
33697;BME280;20031;43.416;23.232;2023-05-27T11:02:23;99943.22;;;30.17;38.80
33697;BME280;20031;43.416;23.232;2023-05-27T11:04:54;99933.28;;;29.66;38.92
33697;BME280;20031;43.416;23.232;2023-05-27T11:07:20;99934.38;;;29.03;39.19
33697;BME280;20031;43.416;23.232;2023-05-27T11:09:50;99930.41;;;28.58;39.62
33697;BME280;20031;43.416;23.232;2023-05-27T11:12:17;99915.59;;;28.65;39.42
33697;BME280;20031;43.416;23.232;2023-05-27T11:14:50;99919.09;;;29.04;39.10
33697;BME280;20031;43.416;23.232;2023-05-27T11:17:16;99919.47;;;29.21;38.25
33697;BME280;20031;43.416;23.232;2023-05-27T11:19:43;99914.56;;;29.61;40.18
33697;BME280;20031;43.416;23.232;2023-05-27T11:22:12;99904.41;;;30.04;39.08
33697;BME280;20031;43.416;23.232;2023-05-27T11:24:38;99914.34;;;30.04;37.35
33697;BME280;20031;43.416;23.232;2023-05-27T11:29:39;99904.44;;;30.78;37.03
33697;BME280;20031;43.416;23.232;2023-05-27T11:32:06;99901.34;;;31.21;36.73
33697;BME280;20031;43.416;23.232;2023-05-27T11:34:35;99896.13;;;31.43;36.93
33697;BME280;20031;43.416;23.232;2023-05-27T11:37:04;99904.91;;;30.66;38.42
33697;BME280;20031;43.416;23.232;2023-05-27T11:39:31;99896.88;;;29.83;38.79
33697;BME280;20031;43.416;23.232;2023-05-27T11:41:56;99898.53;;;29.23;39.38
33697;BME280;20031;43.416;23.232;2023-05-27T11:44:23;99896.75;;;28.80;40.93
33697;BME280;20031;43.416;23.232;2023-05-27T11:46:50;99893.38;;;29.31;41.31
33697;BME280;20031;43.416;23.232;2023-05-27T11:49:17;99887.72;;;29.84;40.21
33697;BME280;20031;43.416;23.232;2023-05-27T11:51:44;99881.00;;;30.05;38.99
33697;BME280;20031;43.416;23.232;2023-05-27T11:56:50;99877.53;;;30.78;36.02
33697;BME280;20031;43.416;23.232;2023-05-27T11:59:16;99880.28;;;31.09;35.23
33697;BME280;20031;43.416;23.232;2023-05-27T12:01:43;99883.53;;;30.38;36.88
33697;BME280;20031;43.416;23.232;2023-05-27T12:04:09;99884.69;;;29.90;37.12
33697;BME280;20031;43.416;23.232;2023-05-27T12:06:36;99881.50;;;29.60;39.08
33697;BME280;20031;43.416;23.232;2023-05-27T12:09:06;99878.97;;;30.15;37.71
33697;BME280;20031;43.416;23.232;2023-05-27T12:11:32;99873.50;;;30.43;36.75
33697;BME280;20031;43.416;23.232;2023-05-27T12:13:58;99863.63;;;30.89;36.70
33697;BME280;20031;43.416;23.232;2023-05-27T12:16:24;99864.63;;;31.11;36.06
33697;BME280;20031;43.416;23.232;2023-05-27T12:18:50;99856.19;;;31.31;36.72
33697;BME280;20031;43.416;23.232;2023-05-27T12:21:16;99854.13;;;31.68;36.73
33697;BME280;20031;43.416;23.232;2023-05-27T12:23:42;99849.44;;;31.87;35.60
33697;BME280;20031;43.416;23.232;2023-05-27T12:26:08;99835.25;;;31.95;35.70
33697;BME280;20031;43.416;23.232;2023-05-27T12:28:33;99830.75;;;32.04;34.97
33697;BME280;20031;43.416;23.232;2023-05-27T12:30:59;99830.88;;;31.99;34.70
33697;BME280;20031;43.416;23.232;2023-05-27T12:33:24;99830.69;;;31.96;35.49
33697;BME280;20031;43.416;23.232;2023-05-27T12:35:50;99829.88;;;32.08;34.86
33697;BME280;20031;43.416;23.232;2023-05-27T12:38:16;99824.38;;;32.00;35.08
33697;BME280;20031;43.416;23.232;2023-05-27T12:40:42;99814.47;;;32.09;34.39
33697;BME280;20031;43.416;23.232;2023-05-27T12:43:07;99813.47;;;32.05;34.81
33697;BME280;20031;43.416;23.232;2023-05-27T12:45:33;99810.91;;;31.60;35.94
33697;BME280;20031;43.416;23.232;2023-05-27T12:47:58;99807.31;;;31.11;36.71